sensor_id;sensor_type;location;lat;lon;timestamp;temperature;humidity
24522;DHT22;12680;57.804;12.190;2023-06-26T00:00:00;16.00;98.90
24522;DHT22;12680;57.804;12.190;2023-06-26T00:02:27;15.90;98.90
24522;DHT22;12680;57.804;12.190;2023-06-26T00:04:54;16.00;99.00
24522;DHT22;12680;57.804;12.190;2023-06-26T00:07:24;15.90;99.10
24522;DHT22;12680;57.804;12.190;2023-06-26T00:09:51;15.90;99.10
24522;DHT22;12680;57.804;12.190;2023-06-26T00:12:19;15.80;99.20
24522;DHT22;12680;57.804;12.190;2023-06-26T00:14:46;15.90;99.30
24522;DHT22;12680;57.804;12.190;2023-06-26T00:17:15;15.80;99.30
24522;DHT22;12680;57.804;12.190;2023-06-26T00:19:48;15.80;99.30
24522;DHT22;12680;57.804;12.190;2023-06-26T00:22:15;15.80;99.40
24522;DHT22;12680;57.804;12.190;2023-06-26T00:24:42;15.80;99.40
24522;DHT22;12680;57.804;12.190;2023-06-26T00:27:14;15.70;99.50
24522;DHT22;12680;57.804;12.190;2023-06-26T00:29:44;15.70;99.50
24522;DHT22;12680;57.804;12.190;2023-06-26T00:32:11;15.70;99.60
24522;DHT22;12680;57.804;12.190;2023-06-26T00:34:43;15.60;99.70
24522;DHT22;12680;57.804;12.190;2023-06-26T00:37:09;16.30;99.90
24522;DHT22;12680;57.804;12.190;2023-06-26T00:39:36;15.60;99.80
24522;DHT22;12680;57.804;12.190;2023-06-26T00:42:03;17.00;99.90
24522;DHT22;12680;57.804;12.190;2023-06-26T00:44:30;15.50;99.80
24522;DHT22;12680;57.804;12.190;2023-06-26T00:46:57;15.50;99.90
24522;DHT22;12680;57.804;12.190;2023-06-26T00:49:24;15.50;99.90
24522;DHT22;12680;57.804;12.190;2023-06-26T00:51:52;15.40;99.90
24522;DHT22;12680;57.804;12.190;2023-06-26T00:54:20;15.40;99.90
24522;DHT22;12680;57.804;12.190;2023-06-26T00:56:48;15.40;99.90
24522;DHT22;12680;57.804;12.190;2023-06-26T00:59:15;15.30;99.90
24522;DHT22;12680;57.804;12.190;2023-06-26T01:01:42;15.30;99.90
24522;DHT22;12680;57.804;12.190;2023-06-26T01:04:09;15.30;99.90
24522;DHT22;12680;57.804;12.190;2023-06-26T01:06:46;17.00;99.90
24522;DHT22;12680;57.804;12.190;2023-06-26T01:09:19;15.20;99.90
24522;DHT22;12680;57.804;12.190;2023-06-26T01:11:46;15.20;99.90
24522;DHT22;12680;57.804;12.190;2023-06-26T01:14:14;15.20;99.90
24522;DHT22;12680;57.804;12.190;2023-06-26T01:16:41;15.20;99.90
24522;DHT22;12680;57.804;12.190;2023-06-26T01:19:20;15.20;99.90
24522;DHT22;12680;57.804;12.190;2023-06-26T01:22:05;15.10;99.90
24522;DHT22;12680;57.804;12.190;2023-06-26T01:27:47;15.00;99.90
24522;DHT22;12680;57.804;12.190;2023-06-26T01:30:16;15.00;99.90
24522;DHT22;12680;57.804;12.190;2023-06-26T01:32:45;15.00;99.90
24522;DHT22;12680;57.804;12.190;2023-06-26T01:35:15;17.40;99.90
24522;DHT22;12680;57.804;12.190;2023-06-26T01:37:42;14.90;99.90
24522;DHT22;12680;57.804;12.190;2023-06-26T01:40:09;15.70;99.90
24522;DHT22;12680;57.804;12.190;2023-06-26T01:42:36;14.90;99.90
24522;DHT22;12680;57.804;12.190;2023-06-26T01:45:16;15.00;99.90
24522;DHT22;12680;57.804;12.190;2023-06-26T01:47:50;14.80;99.90
24522;DHT22;12680;57.804;12.190;2023-06-26T01:50:24;14.80;99.90
24522;DHT22;12680;57.804;12.190;2023-06-26T01:53:12;14.80;99.90
24522;DHT22;12680;57.804;12.190;2023-06-26T01:55:44;14.70;99.90
24522;DHT22;12680;57.804;12.190;2023-06-26T01:58:14;14.70;99.90
24522;DHT22;12680;57.804;12.190;2023-06-26T02:00:43;14.70;99.90
24522;DHT22;12680;57.804;12.190;2023-06-26T02:03:10;15.90;99.90
24522;DHT22;12680;57.804;12.190;2023-06-26T02:05:37;14.70;99.90
24522;DHT22;12680;57.804;12.190;2023-06-26T02:08:04;15.90;99.90
24522;DHT22;12680;57.804;12.190;2023-06-26T02:10:31;14.60;99.90
24522;DHT22;12680;57.804;12.190;2023-06-26T02:12:58;14.60;99.90
24522;DHT22;12680;57.804;12.190;2023-06-26T02:15:24;14.80;99.90
24522;DHT22;12680;57.804;12.190;2023-06-26T02:17:51;16.80;99.90
24522;DHT22;12680;57.804;12.190;2023-06-26T02:20:18;14.50;99.90
24522;DHT22;12680;57.804;12.190;2023-06-26T02:22:45;14.50;99.90
24522;DHT22;12680;57.804;12.190;2023-06-26T02:25:12;14.50;99.90
24522;DHT22;12680;57.804;12.190;2023-06-26T02:27:39;14.90;99.90
24522;DHT22;12680;57.804;12.190;2023-06-26T02:30:07;16.90;99.90
24522;DHT22;12680;57.804;12.190;2023-06-26T02:32:34;14.50;99.90
24522;DHT22;12680;57.804;12.190;2023-06-26T02:35:01;16.30;99.90
24522;DHT22;12680;57.804;12.190;2023-06-26T02:37:28;14.50;99.90
24522;DHT22;12680;57.804;12.190;2023-06-26T02:39:55;14.50;99.90
24522;DHT22;12680;57.804;12.190;2023-06-26T02:42:22;14.50;99.90
24522;DHT22;12680;57.804;12.190;2023-06-26T02:44:48;14.40;99.90
24522;DHT22;12680;57.804;12.190;2023-06-26T02:47:15;15.50;99.90
24522;DHT22;12680;57.804;12.190;2023-06-26T02:49:42;14.40;99.90
24522;DHT22;12680;57.804;12.190;2023-06-26T02:52:09;14.40;99.90
24522;DHT22;12680;57.804;12.190;2023-06-26T02:54:36;14.60;99.90
24522;DHT22;12680;57.804;12.190;2023-06-26T02:57:06;14.40;99.90
24522;DHT22;12680;57.804;12.190;2023-06-26T02:59:33;14.40;99.90
24522;DHT22;12680;57.804;12.190;2023-06-26T03:02:00;16.10;99.90
24522;DHT22;12680;57.804;12.190;2023-06-26T03:04:27;14.50;99.90
24522;DHT22;12680;57.804;12.190;2023-06-26T03:06:54;14.50;99.90
24522;DHT22;12680;57.804;12.190;2023-06-26T03:09:24;14.50;99.90
24522;DHT22;12680;57.804;12.190;2023-06-26T03:11:51;14.60;99.90
24522;DHT22;12680;57.804;12.190;2023-06-26T03:14:19;14.50;99.90
24522;DHT22;12680;57.804;12.190;2023-06-26T03:16:46;16.80;99.90
24522;DHT22;12680;57.804;12.190;2023-06-26T03:19:13;17.00;99.90
24522;DHT22;12680;57.804;12.190;2023-06-26T03:21:40;16.30;99.90
24522;DHT22;12680;57.804;12.190;2023-06-26T03:24:07;14.60;99.90
24522;DHT22;12680;57.804;12.190;2023-06-26T03:26:33;14.60;99.90
24522;DHT22;12680;57.804;12.190;2023-06-26T03:29:00;14.60;99.90
24522;DHT22;12680;57.804;12.190;2023-06-26T03:31:27;14.60;99.90
24522;DHT22;12680;57.804;12.190;2023-06-26T03:33:53;14.60;99.90
24522;DHT22;12680;57.804;12.190;2023-06-26T03:36:20;14.70;99.90
24522;DHT22;12680;57.804;12.190;2023-06-26T03:38:47;14.70;99.90
24522;DHT22;12680;57.804;12.190;2023-06-26T03:41:14;15.90;99.90
24522;DHT22;12680;57.804;12.190;2023-06-26T03:43:41;14.80;99.90
24522;DHT22;12680;57.804;12.190;2023-06-26T03:46:07;14.90;99.90
24522;DHT22;12680;57.804;12.190;2023-06-26T03:48:37;14.90;99.90
24522;DHT22;12680;57.804;12.190;2023-06-26T03:51:05;15.00;99.90
24522;DHT22;12680;57.804;12.190;2023-06-26T03:53:33;15.00;99.90
24522;DHT22;12680;57.804;12.190;2023-06-26T03:56:00;15.10;99.90
24522;DHT22;12680;57.804;12.190;2023-06-26T03:58:27;15.20;99.90
24522;DHT22;12680;57.804;12.190;2023-06-26T04:00:54;15.20;99.90
24522;DHT22;12680;57.804;12.190;2023-06-26T04:03:22;15.30;99.90
24522;DHT22;12680;57.804;12.190;2023-06-26T04:05:49;15.40;99.90
24522;DHT22;12680;57.804;12.190;2023-06-26T04:08:16;15.50;99.90
24522;DHT22;12680;57.804;12.190;2023-06-26T04:10:43;15.60;99.90
24522;DHT22;12680;57.804;12.190;2023-06-26T04:13:12;15.60;99.90
24522;DHT22;12680;57.804;12.190;2023-06-26T04:15:40;15.70;99.90
24522;DHT22;12680;57.804;12.190;2023-06-26T04:18:06;15.70;99.90
24522;DHT22;12680;57.804;12.190;2023-06-26T04:20:39;15.80;99.90
24522;DHT22;12680;57.804;12.190;2023-06-26T04:23:06;16.60;99.90
24522;DHT22;12680;57.804;12.190;2023-06-26T04:25:33;17.50;99.90
24522;DHT22;12680;57.804;12.190;2023-06-26T04:28:00;16.80;99.90
24522;DHT22;12680;57.804;12.190;2023-06-26T04:30:26;15.90;99.90
24522;DHT22;12680;57.804;12.190;2023-06-26T04:32:53;16.00;99.90
24522;DHT22;12680;57.804;12.190;2023-06-26T04:35:23;16.20;99.90
24522;DHT22;12680;57.804;12.190;2023-06-26T04:37:53;16.10;99.90
24522;DHT22;12680;57.804;12.190;2023-06-26T04:40:24;16.80;99.90
24522;DHT22;12680;57.804;12.190;2023-06-26T04:42:50;16.30;99.90
24522;DHT22;12680;57.804;12.190;2023-06-26T04:45:17;16.30;99.90
24522;DHT22;12680;57.804;12.190;2023-06-26T04:47:44;16.30;99.90
24522;DHT22;12680;57.804;12.190;2023-06-26T04:50:11;16.80;99.90
24522;DHT22;12680;57.804;12.190;2023-06-26T04:52:40;16.40;99.90
24522;DHT22;12680;57.804;12.190;2023-06-26T04:55:07;16.50;99.90
24522;DHT22;12680;57.804;12.190;2023-06-26T04:57:33;16.50;99.90
24522;DHT22;12680;57.804;12.190;2023-06-26T05:00:00;16.70;99.90
24522;DHT22;12680;57.804;12.190;2023-06-26T05:02:27;16.80;99.90
24522;DHT22;12680;57.804;12.190;2023-06-26T05:04:54;16.90;99.90
24522;DHT22;12680;57.804;12.190;2023-06-26T05:07:27;17.00;99.90
24522;DHT22;12680;57.804;12.190;2023-06-26T05:09:57;17.10;99.90
24522;DHT22;12680;57.804;12.190;2023-06-26T05:12:24;17.30;99.90
24522;DHT22;12680;57.804;12.190;2023-06-26T05:14:51;17.40;99.90
24522;DHT22;12680;57.804;12.190;2023-06-26T05:17:21;17.60;99.90
24522;DHT22;12680;57.804;12.190;2023-06-26T05:19:48;17.70;99.90
24522;DHT22;12680;57.804;12.190;2023-06-26T05:22:19;18.00;99.90
24522;DHT22;12680;57.804;12.190;2023-06-26T05:24:47;18.20;99.90
24522;DHT22;12680;57.804;12.190;2023-06-26T10:44:26;29.60;99.90
24522;DHT22;12680;57.804;12.190;2023-06-26T10:46:55;30.00;92.10
24522;DHT22;12680;57.804;12.190;2023-06-26T10:49:28;30.10;96.10
24522;DHT22;12680;57.804;12.190;2023-06-26T10:52:00;30.10;95.70
24522;DHT22;12680;57.804;12.190;2023-06-26T10:54:32;30.20;95.40
24522;DHT22;12680;57.804;12.190;2023-06-26T10:56:59;30.00;94.50
24522;DHT22;12680;57.804;12.190;2023-06-26T10:59:30;30.10;94.90
24522;DHT22;12680;57.804;12.190;2023-06-26T11:01:58;30.00;94.80
24522;DHT22;12680;57.804;12.190;2023-06-26T11:04:47;29.90;94.50
24522;DHT22;12680;57.804;12.190;2023-06-26T11:07:15;29.70;94.70
24522;DHT22;12680;57.804;12.190;2023-06-26T11:10:01;29.70;94.50
24522;DHT22;12680;57.804;12.190;2023-06-26T11:12:39;29.80;94.50
24522;DHT22;12680;57.804;12.190;2023-06-26T11:15:13;30.10;94.50
24522;DHT22;12680;57.804;12.190;2023-06-26T11:17:41;30.00;93.90
24522;DHT22;12680;57.804;12.190;2023-06-26T11:20:10;30.00;67.30
24522;DHT22;12680;57.804;12.190;2023-06-26T11:22:39;30.30;65.70
24522;DHT22;12680;57.804;12.190;2023-06-26T11:25:07;30.10;65.40
24522;DHT22;12680;57.804;12.190;2023-06-26T11:27:41;30.10;65.30
24522;DHT22;12680;57.804;12.190;2023-06-26T11:30:22;30.10;64.80
24522;DHT22;12680;57.804;12.190;2023-06-26T11:32:49;30.10;64.50
24522;DHT22;12680;57.804;12.190;2023-06-26T11:35:26;30.10;64.70
24522;DHT22;12680;57.804;12.190;2023-06-26T11:37:58;30.20;64.50
24522;DHT22;12680;57.804;12.190;2023-06-26T11:40:35;30.40;64.10
24522;DHT22;12680;57.804;12.190;2023-06-26T11:43:03;30.40;62.80
24522;DHT22;12680;57.804;12.190;2023-06-26T11:45:31;30.30;62.50
24522;DHT22;12680;57.804;12.190;2023-06-26T11:47:59;30.20;62.00
24522;DHT22;12680;57.804;12.190;2023-06-26T11:50:27;30.20;62.10
24522;DHT22;12680;57.804;12.190;2023-06-26T11:52:58;30.10;61.90
24522;DHT22;12680;57.804;12.190;2023-06-26T11:55:25;30.40;62.20
24522;DHT22;12680;57.804;12.190;2023-06-26T11:57:54;30.60;63.00
24522;DHT22;12680;57.804;12.190;2023-06-26T12:00:21;30.70;61.90
24522;DHT22;12680;57.804;12.190;2023-06-26T12:02:48;30.80;60.90
24522;DHT22;12680;57.804;12.190;2023-06-26T12:05:17;30.90;59.90
24522;DHT22;12680;57.804;12.190;2023-06-26T12:07:46;31.00;59.60
24522;DHT22;12680;57.804;12.190;2023-06-26T12:10:15;31.10;59.30
24522;DHT22;12680;57.804;12.190;2023-06-26T12:12:42;31.30;58.50
24522;DHT22;12680;57.804;12.190;2023-06-26T12:15:14;31.40;57.90
24522;DHT22;12680;57.804;12.190;2023-06-26T12:17:41;31.40;56.80
24522;DHT22;12680;57.804;12.190;2023-06-26T12:20:19;31.30;56.80
24522;DHT22;12680;57.804;12.190;2023-06-26T12:22:48;31.10;57.30
24522;DHT22;12680;57.804;12.190;2023-06-26T12:25:21;31.00;56.70
24522;DHT22;12680;57.804;12.190;2023-06-26T12:27:49;31.00;56.50
24522;DHT22;12680;57.804;12.190;2023-06-26T12:30:16;30.90;56.20
24522;DHT22;12680;57.804;12.190;2023-06-26T12:32:46;30.90;55.90
24522;DHT22;12680;57.804;12.190;2023-06-26T12:35:13;30.90;55.50
24522;DHT22;12680;57.804;12.190;2023-06-26T12:37:42;30.80;55.30
24522;DHT22;12680;57.804;12.190;2023-06-26T12:40:20;30.80;55.30
24522;DHT22;12680;57.804;12.190;2023-06-26T12:42:50;30.70;55.40
24522;DHT22;12680;57.804;12.190;2023-06-26T12:45:17;30.60;55.60
24522;DHT22;12680;57.804;12.190;2023-06-26T12:47:47;30.60;55.70
24522;DHT22;12680;57.804;12.190;2023-06-26T12:50:15;30.50;55.90
24522;DHT22;12680;57.804;12.190;2023-06-26T12:52:43;30.40;55.80
24522;DHT22;12680;57.804;12.190;2023-06-26T12:55:10;30.50;55.80
24522;DHT22;12680;57.804;12.190;2023-06-26T12:57:37;30.50;56.00
24522;DHT22;12680;57.804;12.190;2023-06-26T13:00:04;30.50;56.40
24522;DHT22;12680;57.804;12.190;2023-06-26T13:02:31;30.50;56.90
24522;DHT22;12680;57.804;12.190;2023-06-26T13:04:59;30.60;56.60
24522;DHT22;12680;57.804;12.190;2023-06-26T13:07:25;30.70;56.50
24522;DHT22;12680;57.804;12.190;2023-06-26T13:09:52;30.70;56.80
24522;DHT22;12680;57.804;12.190;2023-06-26T13:12:20;30.70;56.70
24522;DHT22;12680;57.804;12.190;2023-06-26T13:14:46;30.60;57.00
24522;DHT22;12680;57.804;12.190;2023-06-26T13:17:16;30.70;57.40
24522;DHT22;12680;57.804;12.190;2023-06-26T13:19:43;30.90;57.70
24522;DHT22;12680;57.804;12.190;2023-06-26T13:22:10;31.60;57.80
24522;DHT22;12680;57.804;12.190;2023-06-26T13:24:36;31.10;57.20
24522;DHT22;12680;57.804;12.190;2023-06-26T13:27:03;31.30;57.10
24522;DHT22;12680;57.804;12.190;2023-06-26T13:29:31;31.50;57.00
24522;DHT22;12680;57.804;12.190;2023-06-26T13:31:58;31.60;56.30
24522;DHT22;12680;57.804;12.190;2023-06-26T13:34:27;31.40;56.30
24522;DHT22;12680;57.804;12.190;2023-06-26T13:36:54;31.40;56.50
24522;DHT22;12680;57.804;12.190;2023-06-26T13:39:21;31.30;56.50
24522;DHT22;12680;57.804;12.190;2023-06-26T13:41:48;31.30;56.30
24522;DHT22;12680;57.804;12.190;2023-06-26T13:44:15;31.20;56.10
24522;DHT22;12680;57.804;12.190;2023-06-26T13:47:02;31.20;56.30
24522;DHT22;12680;57.804;12.190;2023-06-26T13:49:29;31.20;56.50
24522;DHT22;12680;57.804;12.190;2023-06-26T13:51:56;31.10;56.00
24522;DHT22;12680;57.804;12.190;2023-06-26T13:54:23;31.00;55.90
24522;DHT22;12680;57.804;12.190;2023-06-26T13:56:49;30.80;56.10
24522;DHT22;12680;57.804;12.190;2023-06-26T13:59:16;30.70;56.10
24522;DHT22;12680;57.804;12.190;2023-06-26T14:01:47;30.50;56.30
24522;DHT22;12680;57.804;12.190;2023-06-26T14:04:14;30.40;56.50
24522;DHT22;12680;57.804;12.190;2023-06-26T14:06:40;30.20;56.90
24522;DHT22;12680;57.804;12.190;2023-06-26T14:09:08;30.00;56.90
24522;DHT22;12680;57.804;12.190;2023-06-26T14:11:35;29.80;57.00
24522;DHT22;12680;57.804;12.190;2023-06-26T14:14:02;29.50;57.20
24522;DHT22;12680;57.804;12.190;2023-06-26T14:16:30;29.20;57.60
24522;DHT22;12680;57.804;12.190;2023-06-26T14:18:57;28.90;59.50
24522;DHT22;12680;57.804;12.190;2023-06-26T20:23:31;18.30;99.90
24522;DHT22;12680;57.804;12.190;2023-06-26T20:25:58;18.20;99.90
24522;DHT22;12680;57.804;12.190;2023-06-26T20:28:25;18.10;99.90
24522;DHT22;12680;57.804;12.190;2023-06-26T20:30:52;18.00;99.90
24522;DHT22;12680;57.804;12.190;2023-06-26T20:33:18;17.90;99.90
24522;DHT22;12680;57.804;12.190;2023-06-26T20:35:45;17.90;99.90
24522;DHT22;12680;57.804;12.190;2023-06-26T20:38:12;17.80;99.90
24522;DHT22;12680;57.804;12.190;2023-06-26T20:40:39;17.80;99.90
24522;DHT22;12680;57.804;12.190;2023-06-26T20:43:07;17.80;99.90
24522;DHT22;12680;57.804;12.190;2023-06-26T20:45:35;17.70;99.90
24522;DHT22;12680;57.804;12.190;2023-06-26T20:48:03;17.70;99.90
24522;DHT22;12680;57.804;12.190;2023-06-26T20:50:30;17.60;99.90
24522;DHT22;12680;57.804;12.190;2023-06-26T20:52:57;17.60;99.90
24522;DHT22;12680;57.804;12.190;2023-06-26T20:55:25;17.50;99.90
24522;DHT22;12680;57.804;12.190;2023-06-26T20:57:53;17.50;99.90
24522;DHT22;12680;57.804;12.190;2023-06-26T21:00:21;17.50;99.90
24522;DHT22;12680;57.804;12.190;2023-06-26T21:02:49;17.50;99.90
24522;DHT22;12680;57.804;12.190;2023-06-26T21:05:16;17.40;99.90
24522;DHT22;12680;57.804;12.190;2023-06-26T21:07:43;17.40;99.90
24522;DHT22;12680;57.804;12.190;2023-06-26T21:10:09;17.40;99.90
24522;DHT22;12680;57.804;12.190;2023-06-26T21:12:36;17.40;99.90
24522;DHT22;12680;57.804;12.190;2023-06-26T21:15:04;17.40;99.90
24522;DHT22;12680;57.804;12.190;2023-06-26T21:17:31;17.30;99.90
24522;DHT22;12680;57.804;12.190;2023-06-26T21:19:58;17.30;99.90
24522;DHT22;12680;57.804;12.190;2023-06-26T21:22:24;17.30;99.90
24522;DHT22;12680;57.804;12.190;2023-06-26T21:24:51;17.30;99.90
24522;DHT22;12680;57.804;12.190;2023-06-26T21:27:18;17.20;99.90
24522;DHT22;12680;57.804;12.190;2023-06-26T21:29:45;17.20;99.90
24522;DHT22;12680;57.804;12.190;2023-06-26T21:32:12;17.20;99.90
24522;DHT22;12680;57.804;12.190;2023-06-26T21:34:39;17.20;99.90
24522;DHT22;12680;57.804;12.190;2023-06-26T21:37:05;17.10;99.90
24522;DHT22;12680;57.804;12.190;2023-06-26T21:39:32;17.10;99.90
24522;DHT22;12680;57.804;12.190;2023-06-26T21:41:59;18.90;99.90
24522;DHT22;12680;57.804;12.190;2023-06-26T21:44:26;18.20;99.90
24522;DHT22;12680;57.804;12.190;2023-06-26T21:46:53;17.00;99.90
24522;DHT22;12680;57.804;12.190;2023-06-26T21:49:23;16.90;99.90
24522;DHT22;12680;57.804;12.190;2023-06-26T21:51:52;16.90;99.90
24522;DHT22;12680;57.804;12.190;2023-06-26T21:54:18;16.90;99.90
24522;DHT22;12680;57.804;12.190;2023-06-26T21:56:45;16.80;99.90
24522;DHT22;12680;57.804;12.190;2023-06-26T21:59:12;16.80;99.90
24522;DHT22;12680;57.804;12.190;2023-06-26T22:01:39;16.70;99.90
24522;DHT22;12680;57.804;12.190;2023-06-26T22:04:06;16.70;99.90
24522;DHT22;12680;57.804;12.190;2023-06-26T22:06:36;16.70;99.90
24522;DHT22;12680;57.804;12.190;2023-06-26T22:09:03;16.70;99.90
24522;DHT22;12680;57.804;12.190;2023-06-26T22:11:32;16.70;99.90
24522;DHT22;12680;57.804;12.190;2023-06-26T22:13:58;16.70;99.90
24522;DHT22;12680;57.804;12.190;2023-06-26T22:16:25;16.60;99.90
24522;DHT22;12680;57.804;12.190;2023-06-26T22:18:53;16.60;99.90
24522;DHT22;12680;57.804;12.190;2023-06-26T22:21:20;16.60;99.90
24522;DHT22;12680;57.804;12.190;2023-06-26T22:23:47;16.60;99.90
24522;DHT22;12680;57.804;12.190;2023-06-26T22:26:14;16.50;99.90
24522;DHT22;12680;57.804;12.190;2023-06-26T22:28:40;16.60;99.90
24522;DHT22;12680;57.804;12.190;2023-06-26T22:31:07;16.60;99.90
24522;DHT22;12680;57.804;12.190;2023-06-26T22:33:34;18.60;99.90
24522;DHT22;12680;57.804;12.190;2023-06-26T22:36:01;16.60;99.90
24522;DHT22;12680;57.804;12.190;2023-06-26T22:38:28;16.60;99.90
24522;DHT22;12680;57.804;12.190;2023-06-26T22:40:55;17.20;99.90
24522;DHT22;12680;57.804;12.190;2023-06-26T22:43:22;16.60;99.90
24522;DHT22;12680;57.804;12.190;2023-06-26T22:45:48;16.60;99.90
24522;DHT22;12680;57.804;12.190;2023-06-26T22:48:15;16.70;99.90
24522;DHT22;12680;57.804;12.190;2023-06-26T22:50:42;16.60;99.90
24522;DHT22;12680;57.804;12.190;2023-06-26T22:53:09;16.60;99.90
24522;DHT22;12680;57.804;12.190;2023-06-26T22:55:36;18.70;99.90
24522;DHT22;12680;57.804;12.190;2023-06-26T22:58:03;16.70;99.90
24522;DHT22;12680;57.804;12.190;2023-06-26T23:00:29;16.60;99.90
24522;DHT22;12680;57.804;12.190;2023-06-26T23:02:56;16.60;99.90
24522;DHT22;12680;57.804;12.190;2023-06-26T23:05:23;16.70;99.90
24522;DHT22;12680;57.804;12.190;2023-06-26T23:07:50;16.70;99.90
24522;DHT22;12680;57.804;12.190;2023-06-26T23:10:17;16.70;99.90
24522;DHT22;12680;57.804;12.190;2023-06-26T23:12:44;16.70;99.90
24522;DHT22;12680;57.804;12.190;2023-06-26T23:15:10;16.70;99.90
24522;DHT22;12680;57.804;12.190;2023-06-26T23:17:37;16.70;99.90
24522;DHT22;12680;57.804;12.190;2023-06-26T23:20:05;16.70;99.90
24522;DHT22;12680;57.804;12.190;2023-06-26T23:22:32;16.60;99.90
24522;DHT22;12680;57.804;12.190;2023-06-26T23:25:05;16.70;99.90
24522;DHT22;12680;57.804;12.190;2023-06-26T23:27:32;16.70;99.90
24522;DHT22;12680;57.804;12.190;2023-06-26T23:29:59;16.60;99.90
24522;DHT22;12680;57.804;12.190;2023-06-26T23:32:26;16.60;99.90
24522;DHT22;12680;57.804;12.190;2023-06-26T23:34:54;18.20;99.90
24522;DHT22;12680;57.804;12.190;2023-06-26T23:37:22;16.60;99.90
24522;DHT22;12680;57.804;12.190;2023-06-26T23:39:53;16.60;99.90
24522;DHT22;12680;57.804;12.190;2023-06-26T23:42:19;16.50;99.90
24522;DHT22;12680;57.804;12.190;2023-06-26T23:44:46;18.50;99.90
24522;DHT22;12680;57.804;12.190;2023-06-26T23:47:16;16.50;99.90
24522;DHT22;12680;57.804;12.190;2023-06-26T23:49:46;16.50;99.90
24522;DHT22;12680;57.804;12.190;2023-06-26T23:52:13;17.30;99.90
24522;DHT22;12680;57.804;12.190;2023-06-26T23:54:40;16.50;99.90
24522;DHT22;12680;57.804;12.190;2023-06-26T23:57:07;16.60;99.90
24522;DHT22;12680;57.804;12.190;2023-06-26T23:59:34;19.10;99.90
